Island Home — WDD3413 — position and weather

sailwx.info

Track history (hours):
 
Tides and Currents Weather Stations Pressure Air Temp Water Temp Dewpoint Dewpoint Depression Visibility Wind Speed Wind Dir Waves Ship Positions

Island Home

Owner: WOODS HOLE, MARTHA'S VINEYARD AND NANTUCKET STEAMSHIP AUTHORITY, Woods Hole, MA. More information available from US FCC via Universal Licensing System and Coast Guard Vessel Documentation Center.

Last reported at 2018-Jul-17 00:35 UTC. Time now 2018-Jul-19 09:46 UTC.
Position N 41°31' W 070°40'.

Length 72 m; draft 4 m.

Type: Passenger vessel. MMSI: 367130910.

Date/timePositionNaut miles runAvg speedWind from/ knotsBaromVisibWave heightAir tempDewpointWater temp
2018-Jul-17 00:35N 41°31' W 070°40'  
2018-Jul-14 16:06N 41°28' W 070°36'0 0.3
2018-Jul-14 15:17N 41°28' W 070°35'1 0.2
2018-Jul-14 12:51N 41°27' W 070°36'3 9.4
2018-Jul-14 12:30N 41°30' W 070°39'2 2.6
2018-Jul-14 11:45N 41°31' W 070°40'310.2
2018-Jul-14 11:28N 41°30' W 070°37'3 3.4
2018-Jul-14 10:41N 41°27' W 070°36'2 9.7
2018-Jul-14 10:30N 41°29' W 070°35'4 5.7
2018-Jul-14 09:46N 41°31' W 070°40'0 0.0
2018-Jul-14 09:30N 41°31' W 070°40'0 0.0
2018-Jul-14 09:00N 41°31' W 070°40'0 0.0
2018-Jul-14 07:53N 41°31' W 070°40'0 0.0
2018-Jul-14 07:29N 41°31' W 070°40'5 0.3
2018-Jul-13 12:51N 41°27' W 070°36'3 8.7
2018-Jul-13 12:28N 41°30' W 070°39'1 0.8
2018-Jul-13 11:26N 41°30' W 070°37'3 3.7
2018-Jul-13 10:37N 41°27' W 070°36'210.0
2018-Jul-13 10:25N 41°29' W 070°36'4 3.5
2018-Jul-13 09:18N 41°31' W 070°40'0 0.0
2018-Jul-13 08:53N 41°31' W 070°40'0 0.0
2018-Jul-13 08:30N 41°31' W 070°40'0 0.0
2018-Jul-13 08:00N 41°31' W 070°40'0 0.0
2018-Jul-13 07:29N 41°31' W 070°40'0 0.0
2018-Jul-13 06:59N 41°31' W 070°40'0 0.0
2018-Jul-13 06:30N 41°31' W 070°40'0 0.0
2018-Jul-13 05:52N 41°31' W 070°40'0 0.0
2018-Jul-13 05:28N 41°31' W 070°40'4 1.1
2018-Jul-13 01:43N 41°29' W 070°35'2 2.3
2018-Jul-13 01:01N 41°28' W 070°36'010.7
2018-Jul-13 01:00N 41°28' W 070°35'5 5.0
2018-Jul-13 00:00N 41°31' W 070°40'5 8.9
2018-Jul-12 23:29N 41°29' W 070°35'1 2.1
2018-Jul-12 22:51N 41°28' W 070°36'4 9.6
2018-Jul-12 22:23N 41°30' W 070°40'1 0.3
2018-Jul-12 19:09N 41°31' W 070°40'411.4
2018-Jul-12 18:47N 41°29' W 070°35'4 0.3
2018-Jul-12 02:08N 41°31' W 070°40'5 5.1
2018-Jul-12 01:06N 41°27' W 070°36'1 8.4
2018-Jul-12 01:00N 41°28' W 070°35'  
2018-Jul-09 10:35N 41°28' W 070°35'1 9.7
2018-Jul-09 10:26N 41°29' W 070°35'4 0.9
2018-Jul-09 05:31N 41°31' W 070°40'0 0.0
2018-Jul-09 05:09N 41°31' W 070°40'0 0.0
2018-Jul-09 04:58N 41°31' W 070°40'0 0.0
2018-Jul-09 04:30N 41°31' W 070°40'0 0.1
2018-Jul-09 02:07N 41°31' W 070°40'312.0
2018-Jul-09 01:54N 41°30' W 070°37'2 1.7
2018-Jul-09 00:42N 41°30' W 070°40'  
Track history (hours):
 
Tides and Currents Weather Stations Pressure Air Temp Water Temp Dewpoint Dewpoint Depression Visibility Wind Speed Wind Dir Waves Ship Positions

Island Home

Owner: WOODS HOLE, MARTHA'S VINEYARD AND NANTUCKET STEAMSHIP AUTHORITY, Woods Hole, MA. More information available from US FCC via Universal Licensing System and Coast Guard Vessel Documentation Center.

Last reported at 2018-Jul-17 00:35 UTC. Time now 2018-Jul-19 09:46 UTC.
Position N 41°31' W 070°40'.

Length 72 m; draft 4 m.

Type: Passenger vessel. MMSI: 367130910.

Date/timePositionNaut miles runAvg speedWind from/ knotsBaromVisibWave heightAir tempDewpointWater temp
2018-Jul-17 00:35N 41°31' W 070°40'  
2018-Jul-14 16:06N 41°28' W 070°36'0 0.3
2018-Jul-14 15:17N 41°28' W 070°35'1 0.2
2018-Jul-14 12:51N 41°27' W 070°36'3 9.4
2018-Jul-14 12:30N 41°30' W 070°39'2 2.6
2018-Jul-14 11:45N 41°31' W 070°40'310.2
2018-Jul-14 11:28N 41°30' W 070°37'3 3.4
2018-Jul-14 10:41N 41°27' W 070°36'2 9.7
2018-Jul-14 10:30N 41°29' W 070°35'4 5.7
2018-Jul-14 09:46N 41°31' W 070°40'0 0.0
2018-Jul-14 09:30N 41°31' W 070°40'0 0.0
2018-Jul-14 09:00N 41°31' W 070°40'0 0.0
2018-Jul-14 07:53N 41°31' W 070°40'0 0.0
2018-Jul-14 07:29N 41°31' W 070°40'5 0.3
2018-Jul-13 12:51N 41°27' W 070°36'3 8.7
2018-Jul-13 12:28N 41°30' W 070°39'1 0.8
2018-Jul-13 11:26N 41°30' W 070°37'3 3.7
2018-Jul-13 10:37N 41°27' W 070°36'210.0
2018-Jul-13 10:25N 41°29' W 070°36'4 3.5
2018-Jul-13 09:18N 41°31' W 070°40'0 0.0
2018-Jul-13 08:53N 41°31' W 070°40'0 0.0
2018-Jul-13 08:30N 41°31' W 070°40'0 0.0
2018-Jul-13 08:00N 41°31' W 070°40'0 0.0
2018-Jul-13 07:29N 41°31' W 070°40'0 0.0
2018-Jul-13 06:59N 41°31' W 070°40'0 0.0
2018-Jul-13 06:30N 41°31' W 070°40'0 0.0
2018-Jul-13 05:52N 41°31' W 070°40'0 0.0
2018-Jul-13 05:28N 41°31' W 070°40'4 1.1
2018-Jul-13 01:43N 41°29' W 070°35'2 2.3
2018-Jul-13 01:01N 41°28' W 070°36'010.7
2018-Jul-13 01:00N 41°28' W 070°35'5 5.0
2018-Jul-13 00:00N 41°31' W 070°40'5 8.9
2018-Jul-12 23:29N 41°29' W 070°35'1 2.1
2018-Jul-12 22:51N 41°28' W 070°36'4 9.6
2018-Jul-12 22:23N 41°30' W 070°40'1 0.3
2018-Jul-12 19:09N 41°31' W 070°40'411.4
2018-Jul-12 18:47N 41°29' W 070°35'4 0.3
2018-Jul-12 02:08N 41°31' W 070°40'5 5.1
2018-Jul-12 01:06N 41°27' W 070°36'1 8.4
2018-Jul-12 01:00N 41°28' W 070°35'  
2018-Jul-09 10:35N 41°28' W 070°35'1 9.7
2018-Jul-09 10:26N 41°29' W 070°35'4 0.9
2018-Jul-09 05:31N 41°31' W 070°40'0 0.0
2018-Jul-09 05:09N 41°31' W 070°40'0 0.0
2018-Jul-09 04:58N 41°31' W 070°40'0 0.0
2018-Jul-09 04:30N 41°31' W 070°40'0 0.1
2018-Jul-09 02:07N 41°31' W 070°40'312.0
2018-Jul-09 01:54N 41°30' W 070°37'2 1.7
2018-Jul-09 00:42N 41°30' W 070°40'  

Dump ship's entire track history